sensor_id;sensor_type;location;lat;lon;timestamp;temperature;humidity
22706;DHT22;11520;51.198;4.468;2023-06-22T00:00:53;21.80;99.90
22706;DHT22;11520;51.198;4.468;2023-06-22T00:03:19;21.70;99.90
22706;DHT22;11520;51.198;4.468;2023-06-22T00:05:48;21.60;99.90
22706;DHT22;11520;51.198;4.468;2023-06-22T00:08:14;21.50;99.90
22706;DHT22;11520;51.198;4.468;2023-06-22T00:10:40;21.60;99.90
22706;DHT22;11520;51.198;4.468;2023-06-22T00:13:07;21.50;99.90
22706;DHT22;11520;51.198;4.468;2023-06-22T00:15:34;21.50;99.90
22706;DHT22;11520;51.198;4.468;2023-06-22T00:18:00;21.40;99.90
22706;DHT22;11520;51.198;4.468;2023-06-22T00:20:26;21.30;99.90
22706;DHT22;11520;51.198;4.468;2023-06-22T00:22:53;21.30;99.90
22706;DHT22;11520;51.198;4.468;2023-06-22T00:25:19;21.30;99.90
22706;DHT22;11520;51.198;4.468;2023-06-22T00:27:45;21.30;99.90
22706;DHT22;11520;51.198;4.468;2023-06-22T00:30:10;21.30;99.90
22706;DHT22;11520;51.198;4.468;2023-06-22T00:32:38;21.30;99.90
22706;DHT22;11520;51.198;4.468;2023-06-22T00:35:03;21.30;99.90
22706;DHT22;11520;51.198;4.468;2023-06-22T00:37:29;21.20;99.90
22706;DHT22;11520;51.198;4.468;2023-06-22T00:39:56;21.20;99.90
22706;DHT22;11520;51.198;4.468;2023-06-22T00:42:22;21.10;99.90
22706;DHT22;11520;51.198;4.468;2023-06-22T00:44:48;21.10;99.90
22706;DHT22;11520;51.198;4.468;2023-06-22T00:47:18;21.10;99.90
22706;DHT22;11520;51.198;4.468;2023-06-22T00:49:44;21.20;99.90
22706;DHT22;11520;51.198;4.468;2023-06-22T00:52:10;21.00;99.90
22706;DHT22;11520;51.198;4.468;2023-06-22T00:54:42;21.00;99.90
22706;DHT22;11520;51.198;4.468;2023-06-22T00:57:13;21.00;99.90
22706;DHT22;11520;51.198;4.468;2023-06-22T00:59:43;21.00;99.90
22706;DHT22;11520;51.198;4.468;2023-06-22T01:02:09;21.00;99.90
22706;DHT22;11520;51.198;4.468;2023-06-22T01:04:36;20.90;99.90
22706;DHT22;11520;51.198;4.468;2023-06-22T01:07:10;20.80;99.90
22706;DHT22;11520;51.198;4.468;2023-06-22T01:09:47;20.80;99.90
22706;DHT22;11520;51.198;4.468;2023-06-22T01:12:15;20.70;99.90
22706;DHT22;11520;51.198;4.468;2023-06-22T01:14:46;20.70;99.90
22706;DHT22;11520;51.198;4.468;2023-06-22T01:17:13;20.70;99.90
22706;DHT22;11520;51.198;4.468;2023-06-22T01:19:52;20.80;99.90
22706;DHT22;11520;51.198;4.468;2023-06-22T01:22:30;20.80;99.90
22706;DHT22;11520;51.198;4.468;2023-06-22T01:30:57;20.70;99.90
22706;DHT22;11520;51.198;4.468;2023-06-22T01:33:34;20.60;99.90
22706;DHT22;11520;51.198;4.468;2023-06-22T01:36:01;20.60;99.90
22706;DHT22;11520;51.198;4.468;2023-06-22T01:38:29;20.60;99.90
22706;DHT22;11520;51.198;4.468;2023-06-22T01:40:56;20.40;99.90
22706;DHT22;11520;51.198;4.468;2023-06-22T01:43:25;20.40;99.90
22706;DHT22;11520;51.198;4.468;2023-06-22T01:45:52;20.40;99.90
22706;DHT22;11520;51.198;4.468;2023-06-22T01:48:19;20.40;99.90
22706;DHT22;11520;51.198;4.468;2023-06-22T01:50:45;20.40;99.90
22706;DHT22;11520;51.198;4.468;2023-06-22T01:53:11;20.40;99.90
22706;DHT22;11520;51.198;4.468;2023-06-22T01:55:37;20.40;99.90
22706;DHT22;11520;51.198;4.468;2023-06-22T01:58:02;20.50;99.90
22706;DHT22;11520;51.198;4.468;2023-06-22T02:00:31;20.60;99.90
22706;DHT22;11520;51.198;4.468;2023-06-22T02:03:03;20.60;99.90
22706;DHT22;11520;51.198;4.468;2023-06-22T02:05:38;20.70;99.90
22706;DHT22;11520;51.198;4.468;2023-06-22T02:08:11;20.70;99.90
22706;DHT22;11520;51.198;4.468;2023-06-22T02:10:38;20.70;99.90
22706;DHT22;11520;51.198;4.468;2023-06-22T02:13:07;20.70;99.90
22706;DHT22;11520;51.198;4.468;2023-06-22T02:15:33;20.70;99.90
22706;DHT22;11520;51.198;4.468;2023-06-22T02:17:59;20.60;99.90
22706;DHT22;11520;51.198;4.468;2023-06-22T02:20:25;20.60;99.90
22706;DHT22;11520;51.198;4.468;2023-06-22T02:22:51;20.60;99.90
22706;DHT22;11520;51.198;4.468;2023-06-22T02:25:17;20.40;99.90
22706;DHT22;11520;51.198;4.468;2023-06-22T02:27:42;20.30;99.90
22706;DHT22;11520;51.198;4.468;2023-06-22T02:30:09;20.10;99.90
22706;DHT22;11520;51.198;4.468;2023-06-22T02:32:35;20.10;99.90
22706;DHT22;11520;51.198;4.468;2023-06-22T02:35:01;20.10;99.90
22706;DHT22;11520;51.198;4.468;2023-06-22T02:37:30;20.10;99.90
22706;DHT22;11520;51.198;4.468;2023-06-22T02:39:55;20.00;99.90
22706;DHT22;11520;51.198;4.468;2023-06-22T02:42:21;20.00;99.90
22706;DHT22;11520;51.198;4.468;2023-06-22T02:44:47;20.00;99.90
22706;DHT22;11520;51.198;4.468;2023-06-22T02:47:13;20.10;99.90
22706;DHT22;11520;51.198;4.468;2023-06-22T02:49:38;20.00;99.90
22706;DHT22;11520;51.198;4.468;2023-06-22T02:52:04;19.80;99.90
22706;DHT22;11520;51.198;4.468;2023-06-22T02:54:29;19.90;99.90
22706;DHT22;11520;51.198;4.468;2023-06-22T02:56:55;19.90;99.90
22706;DHT22;11520;51.198;4.468;2023-06-22T02:59:21;19.90;99.90
22706;DHT22;11520;51.198;4.468;2023-06-22T03:01:50;19.90;99.90
22706;DHT22;11520;51.198;4.468;2023-06-22T03:04:16;19.80;99.90
22706;DHT22;11520;51.198;4.468;2023-06-22T03:06:42;19.70;99.90
22706;DHT22;11520;51.198;4.468;2023-06-22T03:09:07;19.70;99.90
22706;DHT22;11520;51.198;4.468;2023-06-22T03:11:34;19.70;99.90
22706;DHT22;11520;51.198;4.468;2023-06-22T03:14:04;19.60;99.90
22706;DHT22;11520;51.198;4.468;2023-06-22T03:16:29;19.70;99.90
22706;DHT22;11520;51.198;4.468;2023-06-22T03:18:55;19.60;99.90
22706;DHT22;11520;51.198;4.468;2023-06-22T03:21:22;19.50;99.90
22706;DHT22;11520;51.198;4.468;2023-06-22T03:23:49;19.50;99.90
22706;DHT22;11520;51.198;4.468;2023-06-22T03:26:17;19.50;99.90
22706;DHT22;11520;51.198;4.468;2023-06-22T03:28:43;19.50;99.90
22706;DHT22;11520;51.198;4.468;2023-06-22T03:31:09;19.40;99.90
22706;DHT22;11520;51.198;4.468;2023-06-22T03:33:34;19.50;99.90
22706;DHT22;11520;51.198;4.468;2023-06-22T03:36:00;19.40;99.90
22706;DHT22;11520;51.198;4.468;2023-06-22T03:38:26;19.30;99.90
22706;DHT22;11520;51.198;4.468;2023-06-22T03:40:51;19.30;99.90
22706;DHT22;11520;51.198;4.468;2023-06-22T03:43:17;19.40;99.90
22706;DHT22;11520;51.198;4.468;2023-06-22T03:45:42;19.50;99.90
22706;DHT22;11520;51.198;4.468;2023-06-22T03:48:11;19.50;99.90
22706;DHT22;11520;51.198;4.468;2023-06-22T03:50:36;19.60;99.90
22706;DHT22;11520;51.198;4.468;2023-06-22T03:53:02;19.50;99.90
22706;DHT22;11520;51.198;4.468;2023-06-22T03:55:27;19.40;99.90
22706;DHT22;11520;51.198;4.468;2023-06-22T03:57:53;19.30;99.90
22706;DHT22;11520;51.198;4.468;2023-06-22T04:00:22;19.40;99.90
22706;DHT22;11520;51.198;4.468;2023-06-22T04:02:48;19.50;99.90
22706;DHT22;11520;51.198;4.468;2023-06-22T04:05:14;19.60;99.90
22706;DHT22;11520;51.198;4.468;2023-06-22T04:07:40;19.60;99.90
22706;DHT22;11520;51.198;4.468;2023-06-22T04:10:06;19.70;99.90
22706;DHT22;11520;51.198;4.468;2023-06-22T04:12:32;19.70;99.90
22706;DHT22;11520;51.198;4.468;2023-06-22T04:14:57;19.70;99.90
22706;DHT22;11520;51.198;4.468;2023-06-22T04:17:23;19.60;99.90
22706;DHT22;11520;51.198;4.468;2023-06-22T04:19:51;19.80;99.90
22706;DHT22;11520;51.198;4.468;2023-06-22T04:22:17;20.00;99.90
22706;DHT22;11520;51.198;4.468;2023-06-22T04:24:44;19.90;99.90
22706;DHT22;11520;51.198;4.468;2023-06-22T04:27:10;20.00;99.90
22706;DHT22;11520;51.198;4.468;2023-06-22T04:29:35;20.00;99.90
22706;DHT22;11520;51.198;4.468;2023-06-22T04:32:01;20.00;99.90
22706;DHT22;11520;51.198;4.468;2023-06-22T04:34:30;19.90;99.90
22706;DHT22;11520;51.198;4.468;2023-06-22T04:36:56;19.70;99.90
22706;DHT22;11520;51.198;4.468;2023-06-22T04:39:22;19.80;99.90
22706;DHT22;11520;51.198;4.468;2023-06-22T04:41:48;20.00;99.90
22706;DHT22;11520;51.198;4.468;2023-06-22T04:44:16;20.20;99.90
22706;DHT22;11520;51.198;4.468;2023-06-22T04:46:52;20.40;99.90
22706;DHT22;11520;51.198;4.468;2023-06-22T04:49:26;20.60;99.90
22706;DHT22;11520;51.198;4.468;2023-06-22T04:52:05;20.70;99.90
22706;DHT22;11520;51.198;4.468;2023-06-22T04:54:32;20.90;99.90
22706;DHT22;11520;51.198;4.468;2023-06-22T04:57:01;21.70;99.90
22706;DHT22;11520;51.198;4.468;2023-06-22T04:59:28;22.40;99.90
22706;DHT22;11520;51.198;4.468;2023-06-22T05:01:59;23.20;99.90
22706;DHT22;11520;51.198;4.468;2023-06-22T05:04:26;24.30;99.90
22706;DHT22;11520;51.198;4.468;2023-06-22T05:06:54;25.20;99.90
22706;DHT22;11520;51.198;4.468;2023-06-22T05:09:21;26.20;99.90
22706;DHT22;11520;51.198;4.468;2023-06-22T05:11:47;26.90;99.90
22706;DHT22;11520;51.198;4.468;2023-06-22T05:14:13;27.70;99.90
22706;DHT22;11520;51.198;4.468;2023-06-22T05:16:40;28.60;99.90
22706;DHT22;11520;51.198;4.468;2023-06-22T05:19:06;29.10;99.90
22706;DHT22;11520;51.198;4.468;2023-06-22T05:21:32;30.00;99.90
22706;DHT22;11520;51.198;4.468;2023-06-22T05:23:58;30.50;98.50
22706;DHT22;11520;51.198;4.468;2023-06-22T05:26:35;30.00;98.10
22706;DHT22;11520;51.198;4.468;2023-06-22T05:29:01;29.60;98.10
22706;DHT22;11520;51.198;4.468;2023-06-22T05:31:28;29.10;98.70
22706;DHT22;11520;51.198;4.468;2023-06-22T05:33:55;28.30;99.90
22706;DHT22;11520;51.198;4.468;2023-06-22T05:36:22;27.80;99.90
22706;DHT22;11520;51.198;4.468;2023-06-22T05:38:51;27.20;99.90
22706;DHT22;11520;51.198;4.468;2023-06-22T05:41:17;26.40;99.90
22706;DHT22;11520;51.198;4.468;2023-06-22T05:43:43;25.50;99.90
22706;DHT22;11520;51.198;4.468;2023-06-22T05:46:09;25.30;99.90
22706;DHT22;11520;51.198;4.468;2023-06-22T05:48:38;24.80;99.90
22706;DHT22;11520;51.198;4.468;2023-06-22T05:51:03;24.70;99.90
22706;DHT22;11520;51.198;4.468;2023-06-22T05:53:29;24.70;99.90
22706;DHT22;11520;51.198;4.468;2023-06-22T05:55:54;24.90;99.90
22706;DHT22;11520;51.198;4.468;2023-06-22T05:58:20;24.80;99.90
22706;DHT22;11520;51.198;4.468;2023-06-22T06:00:46;24.70;99.90
22706;DHT22;11520;51.198;4.468;2023-06-22T06:03:12;24.60;99.90
22706;DHT22;11520;51.198;4.468;2023-06-22T06:05:37;24.20;99.90
22706;DHT22;11520;51.198;4.468;2023-06-22T06:08:05;23.80;99.90
22706;DHT22;11520;51.198;4.468;2023-06-22T06:10:32;23.80;99.90
22706;DHT22;11520;51.198;4.468;2023-06-22T06:12:58;23.70;99.90
22706;DHT22;11520;51.198;4.468;2023-06-22T06:15:24;23.60;99.90
22706;DHT22;11520;51.198;4.468;2023-06-22T06:17:51;23.40;99.90
22706;DHT22;11520;51.198;4.468;2023-06-22T06:20:20;23.40;99.90
22706;DHT22;11520;51.198;4.468;2023-06-22T06:22:46;23.30;99.90
22706;DHT22;11520;51.198;4.468;2023-06-22T06:25:13;23.10;99.90
22706;DHT22;11520;51.198;4.468;2023-06-22T06:27:46;22.50;99.90
22706;DHT22;11520;51.198;4.468;2023-06-22T06:30:13;22.60;99.90
22706;DHT22;11520;51.198;4.468;2023-06-22T06:32:39;22.50;99.90
22706;DHT22;11520;51.198;4.468;2023-06-22T06:35:09;22.30;99.90
22706;DHT22;11520;51.198;4.468;2023-06-22T06:37:39;22.00;99.90
22706;DHT22;11520;51.198;4.468;2023-06-22T06:40:06;22.30;99.90
22706;DHT22;11520;51.198;4.468;2023-06-22T06:42:39;22.30;99.90
22706;DHT22;11520;51.198;4.468;2023-06-22T06:45:08;22.40;99.90
22706;DHT22;11520;51.198;4.468;2023-06-22T06:47:34;22.50;99.90
22706;DHT22;11520;51.198;4.468;2023-06-22T06:50:00;22.50;99.90
22706;DHT22;11520;51.198;4.468;2023-06-22T06:52:25;22.50;99.90
22706;DHT22;11520;51.198;4.468;2023-06-22T06:54:51;22.60;99.90
22706;DHT22;11520;51.198;4.468;2023-06-22T06:57:18;22.60;99.90
22706;DHT22;11520;51.198;4.468;2023-06-22T06:59:43;22.60;99.90
22706;DHT22;11520;51.198;4.468;2023-06-22T07:02:09;22.70;99.90
22706;DHT22;11520;51.198;4.468;2023-06-22T07:04:35;22.80;99.90
22706;DHT22;11520;51.198;4.468;2023-06-22T07:07:02;22.90;99.90
22706;DHT22;11520;51.198;4.468;2023-06-22T07:09:28;22.60;99.90
22706;DHT22;11520;51.198;4.468;2023-06-22T07:11:53;22.50;99.90
22706;DHT22;11520;51.198;4.468;2023-06-22T07:14:20;22.50;99.90
22706;DHT22;11520;51.198;4.468;2023-06-22T07:16:45;22.40;99.90
22706;DHT22;11520;51.198;4.468;2023-06-22T07:19:13;22.20;99.90
22706;DHT22;11520;51.198;4.468;2023-06-22T07:21:39;22.30;99.90
22706;DHT22;11520;51.198;4.468;2023-06-22T07:24:07;22.20;99.90
22706;DHT22;11520;51.198;4.468;2023-06-22T07:26:33;22.00;99.90
22706;DHT22;11520;51.198;4.468;2023-06-22T07:28:59;22.00;99.90
22706;DHT22;11520;51.198;4.468;2023-06-22T07:31:25;22.00;99.90
22706;DHT22;11520;51.198;4.468;2023-06-22T07:33:51;22.00;99.90
22706;DHT22;11520;51.198;4.468;2023-06-22T07:36:18;21.90;99.90
22706;DHT22;11520;51.198;4.468;2023-06-22T07:38:44;21.80;99.90
22706;DHT22;11520;51.198;4.468;2023-06-22T07:41:10;21.90;99.90
22706;DHT22;11520;51.198;4.468;2023-06-22T07:43:37;22.10;99.90
22706;DHT22;11520;51.198;4.468;2023-06-22T07:46:03;22.10;99.90
22706;DHT22;11520;51.198;4.468;2023-06-22T07:48:30;22.10;99.90
22706;DHT22;11520;51.198;4.468;2023-06-22T07:50:56;22.30;99.90
22706;DHT22;11520;51.198;4.468;2023-06-22T07:53:22;22.40;99.90
22706;DHT22;11520;51.198;4.468;2023-06-22T07:55:51;22.60;99.90
22706;DHT22;11520;51.198;4.468;2023-06-22T07:58:16;22.70;99.90
22706;DHT22;11520;51.198;4.468;2023-06-22T08:00:44;22.60;99.90
22706;DHT22;11520;51.198;4.468;2023-06-22T08:03:09;22.80;99.90
22706;DHT22;11520;51.198;4.468;2023-06-22T08:05:35;23.00;99.90
22706;DHT22;11520;51.198;4.468;2023-06-22T08:08:00;22.80;99.90
22706;DHT22;11520;51.198;4.468;2023-06-22T08:10:26;22.70;99.90
22706;DHT22;11520;51.198;4.468;2023-06-22T08:12:52;22.70;99.90
22706;DHT22;11520;51.198;4.468;2023-06-22T08:15:18;22.90;99.90
22706;DHT22;11520;51.198;4.468;2023-06-22T08:17:44;23.00;99.90
22706;DHT22;11520;51.198;4.468;2023-06-22T08:20:11;23.00;99.90
22706;DHT22;11520;51.198;4.468;2023-06-22T08:22:38;23.00;99.90
22706;DHT22;11520;51.198;4.468;2023-06-22T08:25:04;23.10;99.90
22706;DHT22;11520;51.198;4.468;2023-06-22T08:27:30;23.00;99.90
22706;DHT22;11520;51.198;4.468;2023-06-22T08:29:59;22.80;99.90
22706;DHT22;11520;51.198;4.468;2023-06-22T08:32:29;22.90;99.90
22706;DHT22;11520;51.198;4.468;2023-06-22T08:34:56;23.00;99.90
22706;DHT22;11520;51.198;4.468;2023-06-22T08:37:22;23.00;99.90
22706;DHT22;11520;51.198;4.468;2023-06-22T08:39:58;23.00;99.90
22706;DHT22;11520;51.198;4.468;2023-06-22T08:42:23;23.00;99.90
22706;DHT22;11520;51.198;4.468;2023-06-22T08:44:50;22.80;99.90
22706;DHT22;11520;51.198;4.468;2023-06-22T08:47:17;22.90;99.90
22706;DHT22;11520;51.198;4.468;2023-06-22T08:49:44;23.10;99.90
22706;DHT22;11520;51.198;4.468;2023-06-22T08:52:11;23.10;99.90
22706;DHT22;11520;51.198;4.468;2023-06-22T08:54:38;23.10;99.90
22706;DHT22;11520;51.198;4.468;2023-06-22T08:57:05;23.20;99.90
22706;DHT22;11520;51.198;4.468;2023-06-22T08:59:30;23.10;99.90
22706;DHT22;11520;51.198;4.468;2023-06-22T09:01:56;23.30;99.90
22706;DHT22;11520;51.198;4.468;2023-06-22T09:04:22;23.20;99.90
22706;DHT22;11520;51.198;4.468;2023-06-22T09:06:51;23.20;99.90
22706;DHT22;11520;51.198;4.468;2023-06-22T09:09:18;23.20;99.90
22706;DHT22;11520;51.198;4.468;2023-06-22T09:11:50;23.20;99.90
22706;DHT22;11520;51.198;4.468;2023-06-22T09:14:16;22.90;99.90
22706;DHT22;11520;51.198;4.468;2023-06-22T09:16:42;23.00;99.90
22706;DHT22;11520;51.198;4.468;2023-06-22T09:19:08;23.10;99.90
22706;DHT22;11520;51.198;4.468;2023-06-22T09:21:33;23.20;99.90
22706;DHT22;11520;51.198;4.468;2023-06-22T09:23:59;23.20;99.90
22706;DHT22;11520;51.198;4.468;2023-06-22T09:26:25;23.00;99.90
22706;DHT22;11520;51.198;4.468;2023-06-22T09:28:50;23.00;99.90
22706;DHT22;11520;51.198;4.468;2023-06-22T09:31:16;23.00;99.90
22706;DHT22;11520;51.198;4.468;2023-06-22T09:33:43;22.90;99.90
22706;DHT22;11520;51.198;4.468;2023-06-22T09:36:09;23.00;99.90
22706;DHT22;11520;51.198;4.468;2023-06-22T09:38:36;22.90;99.90
22706;DHT22;11520;51.198;4.468;2023-06-22T09:41:01;23.00;99.90
22706;DHT22;11520;51.198;4.468;2023-06-22T09:43:32;23.10;99.90
22706;DHT22;11520;51.198;4.468;2023-06-22T09:46:00;23.10;99.90
22706;DHT22;11520;51.198;4.468;2023-06-22T09:48:27;23.00;99.90
22706;DHT22;11520;51.198;4.468;2023-06-22T09:50:55;23.00;99.90
22706;DHT22;11520;51.198;4.468;2023-06-22T09:53:23;23.10;99.90
22706;DHT22;11520;51.198;4.468;2023-06-22T09:55:49;23.20;99.90
22706;DHT22;11520;51.198;4.468;2023-06-22T09:58:15;23.40;99.90
22706;DHT22;11520;51.198;4.468;2023-06-22T10:00:40;23.40;99.90
22706;DHT22;11520;51.198;4.468;2023-06-22T10:03:07;23.50;99.90
22706;DHT22;11520;51.198;4.468;2023-06-22T10:05:32;23.50;99.90
22706;DHT22;11520;51.198;4.468;2023-06-22T10:07:58;23.40;99.90
22706;DHT22;11520;51.198;4.468;2023-06-22T10:10:23;23.50;99.90
22706;DHT22;11520;51.198;4.468;2023-06-22T10:12:56;23.60;99.90
22706;DHT22;11520;51.198;4.468;2023-06-22T10:15:22;23.70;99.90
22706;DHT22;11520;51.198;4.468;2023-06-22T10:17:53;23.70;99.90
22706;DHT22;11520;51.198;4.468;2023-06-22T10:20:19;23.80;99.90
22706;DHT22;11520;51.198;4.468;2023-06-22T10:22:46;23.90;99.90
22706;DHT22;11520;51.198;4.468;2023-06-22T10:25:12;23.90;99.90
22706;DHT22;11520;51.198;4.468;2023-06-22T10:27:38;23.90;99.90
22706;DHT22;11520;51.198;4.468;2023-06-22T10:30:11;23.90;99.90
22706;DHT22;11520;51.198;4.468;2023-06-22T10:32:41;23.80;99.90
22706;DHT22;11520;51.198;4.468;2023-06-22T10:35:09;23.80;99.90
22706;DHT22;11520;51.198;4.468;2023-06-22T10:37:57;23.90;99.90
22706;DHT22;11520;51.198;4.468;2023-06-22T10:40:23;23.60;99.90
22706;DHT22;11520;51.198;4.468;2023-06-22T10:42:49;23.60;99.90
22706;DHT22;11520;51.198;4.468;2023-06-22T10:45:15;23.50;99.90
22706;DHT22;11520;51.198;4.468;2023-06-22T10:47:42;23.40;99.90
22706;DHT22;11520;51.198;4.468;2023-06-22T10:50:08;23.40;99.90
22706;DHT22;11520;51.198;4.468;2023-06-22T10:52:34;23.20;99.90
22706;DHT22;11520;51.198;4.468;2023-06-22T10:54:59;23.30;99.90
22706;DHT22;11520;51.198;4.468;2023-06-22T10:57:25;23.40;99.90
22706;DHT22;11520;51.198;4.468;2023-06-22T10:59:51;23.50;99.90
22706;DHT22;11520;51.198;4.468;2023-06-22T11:02:16;23.40;99.90
22706;DHT22;11520;51.198;4.468;2023-06-22T11:04:42;23.40;99.90
22706;DHT22;11520;51.198;4.468;2023-06-22T11:07:09;23.50;99.90
22706;DHT22;11520;51.198;4.468;2023-06-22T11:09:35;23.40;99.90
22706;DHT22;11520;51.198;4.468;2023-06-22T11:12:00;23.40;99.90
22706;DHT22;11520;51.198;4.468;2023-06-22T11:14:26;23.40;99.90
22706;DHT22;11520;51.198;4.468;2023-06-22T11:16:52;23.50;99.90
22706;DHT22;11520;51.198;4.468;2023-06-22T11:19:18;23.50;99.90
22706;DHT22;11520;51.198;4.468;2023-06-22T11:21:44;23.50;99.90
22706;DHT22;11520;51.198;4.468;2023-06-22T11:24:11;23.50;99.90
22706;DHT22;11520;51.198;4.468;2023-06-22T11:26:36;23.40;99.90
22706;DHT22;11520;51.198;4.468;2023-06-22T11:29:02;23.30;99.90
22706;DHT22;11520;51.198;4.468;2023-06-22T11:31:31;23.20;99.90
22706;DHT22;11520;51.198;4.468;2023-06-22T11:33:58;23.00;99.90
22706;DHT22;11520;51.198;4.468;2023-06-22T11:36:24;22.70;99.90
22706;DHT22;11520;51.198;4.468;2023-06-22T11:38:51;22.70;99.90
22706;DHT22;11520;51.198;4.468;2023-06-22T11:41:22;22.70;99.90
22706;DHT22;11520;51.198;4.468;2023-06-22T11:43:54;22.50;99.90
22706;DHT22;11520;51.198;4.468;2023-06-22T11:46:19;22.40;99.90
22706;DHT22;11520;51.198;4.468;2023-06-22T11:48:49;22.10;99.90
22706;DHT22;11520;51.198;4.468;2023-06-22T11:51:19;22.20;99.90
22706;DHT22;11520;51.198;4.468;2023-06-22T11:53:44;22.30;99.90
22706;DHT22;11520;51.198;4.468;2023-06-22T11:56:10;22.30;99.90
22706;DHT22;11520;51.198;4.468;2023-06-22T11:58:35;22.30;99.90
22706;DHT22;11520;51.198;4.468;2023-06-22T12:01:02;22.00;99.90
22706;DHT22;11520;51.198;4.468;2023-06-22T12:03:30;21.90;99.90
22706;DHT22;11520;51.198;4.468;2023-06-22T12:05:56;21.60;99.90
22706;DHT22;11520;51.198;4.468;2023-06-22T12:08:21;21.40;99.90
22706;DHT22;11520;51.198;4.468;2023-06-22T12:10:48;21.10;99.90
22706;DHT22;11520;51.198;4.468;2023-06-22T12:13:15;21.10;99.90
22706;DHT22;11520;51.198;4.468;2023-06-22T12:15:41;21.00;99.90
22706;DHT22;11520;51.198;4.468;2023-06-22T12:18:06;20.80;99.90
22706;DHT22;11520;51.198;4.468;2023-06-22T12:20:33;20.80;99.90
22706;DHT22;11520;51.198;4.468;2023-06-22T12:22:59;20.70;99.90
22706;DHT22;11520;51.198;4.468;2023-06-22T12:25:26;20.60;99.90
22706;DHT22;11520;51.198;4.468;2023-06-22T12:27:52;20.60;99.90
22706;DHT22;11520;51.198;4.468;2023-06-22T12:30:17;20.70;99.90
22706;DHT22;11520;51.198;4.468;2023-06-22T12:32:43;20.80;99.90
22706;DHT22;11520;51.198;4.468;2023-06-22T12:35:08;20.60;99.90
22706;DHT22;11520;51.198;4.468;2023-06-22T12:37:42;20.40;99.90
22706;DHT22;11520;51.198;4.468;2023-06-22T12:40:08;20.50;99.90
22706;DHT22;11520;51.198;4.468;2023-06-22T12:42:34;20.60;99.90
22706;DHT22;11520;51.198;4.468;2023-06-22T12:45:01;20.60;99.90
22706;DHT22;11520;51.198;4.468;2023-06-22T12:47:33;20.60;99.90
22706;DHT22;11520;51.198;4.468;2023-06-22T12:50:03;20.70;99.90
22706;DHT22;11520;51.198;4.468;2023-06-22T12:52:30;20.70;99.90
22706;DHT22;11520;51.198;4.468;2023-06-22T12:54:57;20.60;99.90
22706;DHT22;11520;51.198;4.468;2023-06-22T12:57:22;20.50;99.90
22706;DHT22;11520;51.198;4.468;2023-06-22T12:59:49;20.50;99.90
22706;DHT22;11520;51.198;4.468;2023-06-22T13:02:14;20.60;99.90
22706;DHT22;11520;51.198;4.468;2023-06-22T13:04:41;20.70;99.90
22706;DHT22;11520;51.198;4.468;2023-06-22T13:07:08;20.80;99.90
22706;DHT22;11520;51.198;4.468;2023-06-22T13:09:34;20.80;99.90
22706;DHT22;11520;51.198;4.468;2023-06-22T13:12:01;20.70;99.90
22706;DHT22;11520;51.198;4.468;2023-06-22T13:14:26;20.50;99.90
22706;DHT22;11520;51.198;4.468;2023-06-22T13:16:52;20.40;99.90
22706;DHT22;11520;51.198;4.468;2023-06-22T13:19:18;20.40;99.90
22706;DHT22;11520;51.198;4.468;2023-06-22T13:21:44;20.30;99.90
22706;DHT22;11520;51.198;4.468;2023-06-22T13:24:10;20.20;99.90
22706;DHT22;11520;51.198;4.468;2023-06-22T13:26:36;20.20;99.90
22706;DHT22;11520;51.198;4.468;2023-06-22T13:29:02;20.30;99.90
22706;DHT22;11520;51.198;4.468;2023-06-22T13:31:28;20.30;99.90
22706;DHT22;11520;51.198;4.468;2023-06-22T13:33:58;20.20;99.90
22706;DHT22;11520;51.198;4.468;2023-06-22T13:36:24;20.10;99.90
22706;DHT22;11520;51.198;4.468;2023-06-22T13:38:50;19.90;99.90
22706;DHT22;11520;51.198;4.468;2023-06-22T13:41:16;19.80;99.90
22706;DHT22;11520;51.198;4.468;2023-06-22T13:43:42;19.90;99.90
22706;DHT22;11520;51.198;4.468;2023-06-22T13:46:07;19.90;99.90
22706;DHT22;11520;51.198;4.468;2023-06-22T13:48:33;19.90;99.90
22706;DHT22;11520;51.198;4.468;2023-06-22T13:51:00;19.90;99.90
22706;DHT22;11520;51.198;4.468;2023-06-22T13:53:25;20.00;99.90
22706;DHT22;11520;51.198;4.468;2023-06-22T13:55:51;20.10;99.90
22706;DHT22;11520;51.198;4.468;2023-06-22T13:58:17;20.20;99.90
22706;DHT22;11520;51.198;4.468;2023-06-22T14:00:45;20.10;99.90
22706;DHT22;11520;51.198;4.468;2023-06-22T14:03:11;20.10;99.90
22706;DHT22;11520;51.198;4.468;2023-06-22T14:05:37;20.20;99.90
22706;DHT22;11520;51.198;4.468;2023-06-22T14:08:02;20.30;99.90
22706;DHT22;11520;51.198;4.468;2023-06-22T14:10:28;20.30;99.90
22706;DHT22;11520;51.198;4.468;2023-06-22T14:12:53;20.20;99.90
22706;DHT22;11520;51.198;4.468;2023-06-22T14:15:19;20.00;99.90
22706;DHT22;11520;51.198;4.468;2023-06-22T14:17:45;20.10;99.90
22706;DHT22;11520;51.198;4.468;2023-06-22T14:20:10;20.10;99.90
22706;DHT22;11520;51.198;4.468;2023-06-22T14:22:37;20.20;99.90
22706;DHT22;11520;51.198;4.468;2023-06-22T14:25:04;20.20;99.90
22706;DHT22;11520;51.198;4.468;2023-06-22T14:27:35;20.20;99.90
22706;DHT22;11520;51.198;4.468;2023-06-22T14:30:01;20.10;99.90
22706;DHT22;11520;51.198;4.468;2023-06-22T14:32:28;20.10;99.90
22706;DHT22;11520;51.198;4.468;2023-06-22T14:34:55;20.00;99.90
22706;DHT22;11520;51.198;4.468;2023-06-22T14:37:21;20.00;99.90
22706;DHT22;11520;51.198;4.468;2023-06-22T14:39:47;20.10;99.90
22706;DHT22;11520;51.198;4.468;2023-06-22T14:42:12;20.20;99.90
22706;DHT22;11520;51.198;4.468;2023-06-22T14:44:38;20.20;99.90
22706;DHT22;11520;51.198;4.468;2023-06-22T14:47:05;20.20;99.90
22706;DHT22;11520;51.198;4.468;2023-06-22T14:49:31;20.20;99.90
22706;DHT22;11520;51.198;4.468;2023-06-22T14:51:57;20.20;99.90
22706;DHT22;11520;51.198;4.468;2023-06-22T14:54:29;20.20;99.90
22706;DHT22;11520;51.198;4.468;2023-06-22T14:56:59;20.20;99.90
22706;DHT22;11520;51.198;4.468;2023-06-22T14:59:25;20.20;99.90
22706;DHT22;11520;51.198;4.468;2023-06-22T15:01:50;20.20;99.90
22706;DHT22;11520;51.198;4.468;2023-06-22T15:04:16;20.30;99.90
22706;DHT22;11520;51.198;4.468;2023-06-22T15:06:41;20.30;99.90
22706;DHT22;11520;51.198;4.468;2023-06-22T15:09:07;20.30;99.90
22706;DHT22;11520;51.198;4.468;2023-06-22T15:11:33;20.40;99.90
22706;DHT22;11520;51.198;4.468;2023-06-22T15:13:59;20.40;99.90
22706;DHT22;11520;51.198;4.468;2023-06-22T15:16:25;20.40;99.90
22706;DHT22;11520;51.198;4.468;2023-06-22T15:18:51;20.30;99.90
22706;DHT22;11520;51.198;4.468;2023-06-22T15:21:17;20.40;99.90
22706;DHT22;11520;51.198;4.468;2023-06-22T15:23:42;20.50;99.90
22706;DHT22;11520;51.198;4.468;2023-06-22T15:26:08;20.60;99.90
22706;DHT22;11520;51.198;4.468;2023-06-22T15:28:34;20.80;99.90
22706;DHT22;11520;51.198;4.468;2023-06-22T15:31:02;20.80;99.90
22706;DHT22;11520;51.198;4.468;2023-06-22T15:33:29;20.70;99.90